Time;durP1;ratioP1;P1;durP2;ratioP2;P2;SDS_P1;SDS_P2;PMS_P1;PMS_P2;Temp;Humidity;BMP_temperature;BMP_pressure;BME280_temperature;BME280_humidity;BME280_pressure;Samples;Min_cycle;Max_cycle;Signal;HPM_P1;HPM_P2
2022/03/26 00:01:26;;;;;;;21.90;10.03;;;;;;;;;;5031639;28;20511;-66
2022/03/26 00:03:51;;;;;;;19.43;9.37;;;;;;;;;;5039107;28;20181;-66
2022/03/26 00:06:16;;;;;;;24.73;10.53;;;;;;;;;;5038642;28;20820;-66
2022/03/26 00:08:42;;;;;;;27.90;10.97;;;;;;;;;;5014753;28;20574;-65
2022/03/26 00:11:07;;;;;;;28.87;10.63;;;;;;;;;;5026249;28;20218;-65
2022/03/26 00:13:32;;;;;;;22.53;10.30;;;;;;;;;;5026883;28;20251;-67
2022/03/26 00:15:58;;;;;;;25.93;11.57;;;;;;;;;;5026423;28;20210;-66
2022/03/26 00:18:23;;;;;;;24.83;10.47;;;;;;;;;;5039711;28;20177;-66
2022/03/26 00:20:48;;;;;;;26.67;11.20;;;;;;;;;;5029758;28;20534;-64
2022/03/26 00:23:14;;;;;;;26.43;10.93;;;;;;;;;;5025461;28;20182;-65
2022/03/26 00:25:39;;;;;;;27.43;11.37;;;;;;;;;;5014912;28;20618;-65
2022/03/26 00:28:05;;;;;;;27.37;10.83;;;;;;;;;;5019473;28;20174;-66
2022/03/26 00:30:31;;;;;;;27.87;12.07;;;;;;;;;;5029447;28;20201;-65
2022/03/26 00:32:56;;;;;;;24.33;11.30;;;;;;;;;;5034834;28;20182;-65
2022/03/26 00:35:22;;;;;;;28.40;12.80;;;;;;;;;;5036621;28;20194;-65
2022/03/26 00:37:47;;;;;;;29.20;13.27;;;;;;;;;;5029340;28;20170;-65
2022/03/26 00:40:13;;;;;;;32.07;12.30;;;;;;;;;;5040801;28;20182;-65
2022/03/26 00:42:39;;;;;;;30.43;13.20;;;;;;;;;;5027547;28;20231;-64
2022/03/26 00:45:05;;;;;;;26.90;12.23;;;;;;;;;;5025178;28;20273;-65
2022/03/26 00:47:31;;;;;;;32.17;11.80;;;;;;;;;;5024279;28;20527;-65
2022/03/26 00:49:56;;;;;;;30.77;12.40;;;;;;;;;;5028532;28;20177;-65
2022/03/26 00:52:22;;;;;;;25.33;11.63;;;;;;;;;;5021758;28;20186;-65
2022/03/26 00:54:47;;;;;;;32.27;13.27;;;;;;;;;;5034072;28;20177;-65
2022/03/26 00:57:13;;;;;;;36.67;13.33;;;;;;;;;;5030019;28;20178;-65
2022/03/26 00:59:39;;;;;;;29.33;12.57;;;;;;;;;;5027182;28;20197;-65
2022/03/26 01:02:04;;;;;;;32.33;12.50;;;;;;;;;;5023800;28;20190;-66
2022/03/26 01:04:30;;;;;;;30.90;13.20;;;;;;;;;;5029554;28;20193;-66
2022/03/26 01:06:55;;;;;;;27.00;12.73;;;;;;;;;;5033503;28;20217;-65
2022/03/26 01:09:20;;;;;;;32.53;13.40;;;;;;;;;;5033128;28;20174;-65
2022/03/26 01:11:46;;;;;;;32.40;13.53;;;;;;;;;;5026263;28;20177;-65
2022/03/26 01:14:11;;;;;;;32.90;13.80;;;;;;;;;;5021509;28;20306;-65
2022/03/26 01:16:37;;;;;;;30.57;13.40;;;;;;;;;;5030635;28;20265;-65
2022/03/26 01:19:02;;;;;;;29.97;13.30;;;;;;;;;;5026655;28;20190;-65
2022/03/26 01:21:28;;;;;;;34.80;13.70;;;;;;;;;;5024990;28;20178;-65
2022/03/26 01:23:53;;;;;;;36.93;14.60;;;;;;;;;;5034344;28;20314;-65
2022/03/26 01:26:19;;;;;;;30.23;13.33;;;;;;;;;;5035963;28;20230;-65
2022/03/26 01:28:44;;;;;;;32.70;14.13;;;;;;;;;;5039267;28;20683;-65
2022/03/26 01:31:10;;;;;;;32.53;14.27;;;;;;;;;;5037457;28;20193;-65
2022/03/26 01:33:36;;;;;;;42.20;15.30;;;;;;;;;;5023042;28;20206;-65
2022/03/26 01:36:02;;;;;;;35.03;15.50;;;;;;;;;;5028069;28;20684;-66
2022/03/26 01:38:27;;;;;;;27.50;13.63;;;;;;;;;;5045254;28;20252;-66
2022/03/26 01:40:53;;;;;;;36.03;14.90;;;;;;;;;;5035883;28;20597;-66
2022/03/26 01:43:18;;;;;;;34.17;13.77;;;;;;;;;;5038772;28;20189;-66
2022/03/26 01:45:44;;;;;;;35.73;13.37;;;;;;;;;;5042593;28;20622;-66
2022/03/26 01:48:09;;;;;;;29.40;13.53;;;;;;;;;;5023615;28;20182;-66
2022/03/26 01:50:34;;;;;;;34.50;14.50;;;;;;;;;;5027384;28;20209;-65
2022/03/26 01:53:00;;;;;;;36.03;14.90;;;;;;;;;;5024757;28;20182;-66
2022/03/26 01:55:27;;;;;;;32.47;13.10;;;;;;;;;;5025637;28;20217;-66
2022/03/26 01:57:53;;;;;;;30.63;13.47;;;;;;;;;;5021496;28;20250;-65
2022/03/26 02:00:19;;;;;;;33.13;14.07;;;;;;;;;;5027904;28;20717;-65
2022/03/26 02:02:45;;;;;;;38.80;15.30;;;;;;;;;;5023832;28;20170;-65
2022/03/26 02:05:12;;;;;;;32.73;13.13;;;;;;;;;;5026220;28;20487;-65
2022/03/26 02:07:39;;;;;;;29.90;13.40;;;;;;;;;;5013632;28;20190;-66
2022/03/26 02:10:06;;;;;;;30.37;13.00;;;;;;;;;;5030891;28;20190;-66
2022/03/26 02:12:32;;;;;;;33.70;13.70;;;;;;;;;;5017982;28;20638;-65
2022/03/26 02:14:58;;;;;;;33.30;13.07;;;;;;;;;;5032590;28;20249;-66
2022/03/26 02:17:23;;;;;;;29.23;12.70;;;;;;;;;;5022381;28;20259;-65
2022/03/26 02:19:58;;;;;;;34.47;13.67;;;;;;;;;;5028171;28;20205;-66
2022/03/26 02:22:26;;;;;;;35.97;13.50;;;;;;;;;;5024622;28;20526;-67
2022/03/26 02:24:52;;;;;;;34.67;12.90;;;;;;;;;;5038911;28;20218;-65
2022/03/26 02:27:17;;;;;;;33.53;13.03;;;;;;;;;;5031530;28;20253;-66
2022/03/26 02:29:43;;;;;;;31.13;13.33;;;;;;;;;;5039992;28;20177;-65
2022/03/26 02:32:09;;;;;;;34.43;13.87;;;;;;;;;;5034617;28;20272;-65
2022/03/26 02:34:35;;;;;;;34.07;12.90;;;;;;;;;;5039820;28;20189;-65
2022/03/26 02:37:00;;;;;;;40.20;14.07;;;;;;;;;;5035639;28;20180;-65
2022/03/26 02:39:27;;;;;;;37.30;14.80;;;;;;;;;;5033823;28;20352;-65
2022/03/26 02:41:52;;;;;;;32.43;13.90;;;;;;;;;;5019361;28;20638;-65
2022/03/26 02:44:19;;;;;;;35.50;14.93;;;;;;;;;;5025804;28;20194;-66
2022/03/26 02:46:45;;;;;;;32.50;13.27;;;;;;;;;;5034678;28;20263;-66
2022/03/26 02:49:12;;;;;;;38.80;15.00;;;;;;;;;;5022542;28;20524;-66
2022/03/26 02:51:38;;;;;;;34.53;14.50;;;;;;;;;;5020763;28;20200;-66
2022/03/26 02:54:04;;;;;;;38.43;14.23;;;;;;;;;;5026190;28;20174;-67
2022/03/26 02:56:29;;;;;;;35.87;15.33;;;;;;;;;;5025810;28;20535;-66
2022/03/26 02:58:55;;;;;;;37.40;15.43;;;;;;;;;;5031351;28;20273;-66
2022/03/26 03:01:20;;;;;;;36.17;14.70;;;;;;;;;;5025745;28;20554;-67
2022/03/26 03:03:45;;;;;;;33.93;13.83;;;;;;;;;;5027637;28;20554;-66
2022/03/26 03:06:11;;;;;;;42.13;15.03;;;;;;;;;;5026375;28;20198;-66
2022/03/26 03:08:37;;;;;;;42.43;15.40;;;;;;;;;;5035617;28;20201;-66
2022/03/26 03:11:02;;;;;;;39.63;15.07;;;;;;;;;;5034116;28;20186;-67
2022/03/26 03:13:28;;;;;;;33.20;15.00;;;;;;;;;;5030670;28;20273;-66
2022/03/26 03:15:53;;;;;;;33.73;14.97;;;;;;;;;;5034325;28;20237;-66
2022/03/26 03:18:19;;;;;;;33.03;14.17;;;;;;;;;;5025831;28;20174;-65
2022/03/26 03:20:44;;;;;;;36.77;15.10;;;;;;;;;;5023574;28;20653;-65
2022/03/26 03:23:11;;;;;;;31.87;14.33;;;;;;;;;;5030516;28;20174;-65
2022/03/26 03:25:37;;;;;;;42.13;15.20;;;;;;;;;;5031903;28;20178;-66
2022/03/26 03:28:04;;;;;;;37.13;16.10;;;;;;;;;;5029240;28;20198;-65
2022/03/26 03:30:29;;;;;;;33.47;14.03;;;;;;;;;;5024827;28;20679;-65
2022/03/26 03:32:54;;;;;;;36.90;15.83;;;;;;;;;;5020333;28;20209;-64
2022/03/26 03:35:21;;;;;;;37.00;14.70;;;;;;;;;;5034685;28;20639;-65
2022/03/26 03:37:46;;;;;;;37.47;16.07;;;;;;;;;;5021429;28;20179;-65
2022/03/26 03:40:13;;;;;;;37.83;15.50;;;;;;;;;;5023230;28;20205;-65
2022/03/26 03:42:39;;;;;;;34.70;14.97;;;;;;;;;;5029004;28;20543;-65
2022/03/26 03:45:06;;;;;;;36.20;15.70;;;;;;;;;;5026184;28;20178;-65
2022/03/26 03:47:31;;;;;;;37.97;14.53;;;;;;;;;;5020562;28;20264;-65
2022/03/26 03:49:56;;;;;;;43.90;16.47;;;;;;;;;;5021866;28;20536;-65
2022/03/26 03:52:22;;;;;;;41.87;16.97;;;;;;;;;;5038235;28;20277;-65
2022/03/26 03:54:47;;;;;;;38.23;15.90;;;;;;;;;;5026102;28;20547;-65
2022/03/26 03:57:13;;;;;;;38.00;16.63;;;;;;;;;;5033619;28;20252;-65
2022/03/26 03:59:41;;;;;;;40.57;16.33;;;;;;;;;;5030260;28;20189;-66
2022/03/26 04:02:08;;;;;;;40.07;16.43;;;;;;;;;;5026919;28;20225;-65
2022/03/26 04:04:33;;;;;;;45.63;17.37;;;;;;;;;;5028869;28;20532;-64
2022/03/26 04:06:58;;;;;;;43.00;16.50;;;;;;;;;;5027449;28;20514;-65
2022/03/26 04:09:24;;;;;;;37.97;17.20;;;;;;;;;;5035847;28;20186;-66
2022/03/26 04:11:50;;;;;;;41.47;16.63;;;;;;;;;;5025272;28;20174;-65
2022/03/26 04:14:15;;;;;;;40.97;17.57;;;;;;;;;;5018151;28;20293;-65
2022/03/26 04:16:40;;;;;;;43.07;17.33;;;;;;;;;;5030402;28;20182;-65
2022/03/26 04:19:06;;;;;;;46.73;17.83;;;;;;;;;;5018722;28;20182;-65
2022/03/26 04:21:31;;;;;;;46.03;16.73;;;;;;;;;;5026438;28;20669;-65
2022/03/26 04:23:56;;;;;;;40.73;17.30;;;;;;;;;;5025232;28;20312;-65
2022/03/26 04:26:22;;;;;;;40.63;16.57;;;;;;;;;;5027829;28;20228;-65
2022/03/26 04:28:47;;;;;;;44.27;17.40;;;;;;;;;;5026988;28;20217;-65
2022/03/26 04:31:12;;;;;;;44.00;17.60;;;;;;;;;;5029335;28;20213;-65
2022/03/26 04:33:38;;;;;;;38.67;17.33;;;;;;;;;;5018184;28;20186;-65
2022/03/26 04:36:03;;;;;;;43.47;17.10;;;;;;;;;;5027110;28;20177;-65
2022/03/26 04:38:29;;;;;;;48.00;19.70;;;;;;;;;;5027565;28;20178;-65
2022/03/26 04:40:54;;;;;;;49.33;19.43;;;;;;;;;;5029080;28;20181;-66
2022/03/26 04:43:21;;;;;;;43.13;18.33;;;;;;;;;;5026167;28;20562;-65
2022/03/26 04:45:46;;;;;;;47.03;18.87;;;;;;;;;;5024225;28;20644;-65
2022/03/26 04:48:13;;;;;;;43.57;19.00;;;;;;;;;;5025398;28;20269;-65
2022/03/26 04:50:39;;;;;;;45.73;18.47;;;;;;;;;;5028158;28;20182;-65
2022/03/26 04:53:04;;;;;;;45.80;19.23;;;;;;;;;;5014920;28;20202;-65
2022/03/26 04:55:29;;;;;;;42.60;16.83;;;;;;;;;;5023814;28;20216;-66
2022/03/26 04:57:55;;;;;;;44.27;17.60;;;;;;;;;;5013080;28;20243;-66
2022/03/26 05:00:22;;;;;;;39.53;17.90;;;;;;;;;;5027768;28;20204;-66
2022/03/26 05:02:47;;;;;;;44.63;18.13;;;;;;;;;;5025407;28;20177;-66
2022/03/26 05:05:14;;;;;;;48.13;18.37;;;;;;;;;;5035952;28;20564;-66
2022/03/26 05:07:45;;;;;;;41.60;18.13;;;;;;;;;;5019878;28;20273;-66
2022/03/26 05:10:15;;;;;;;46.00;17.87;;;;;;;;;;5026334;28;20182;-66
2022/03/26 05:12:44;;;;;;;39.13;17.93;;;;;;;;;;5021111;28;20590;-66
2022/03/26 05:15:11;;;;;;;45.20;18.10;;;;;;;;;;5018587;28;20220;-66
2022/03/26 05:17:36;;;;;;;43.70;17.90;;;;;;;;;;5025238;28;20254;-66
2022/03/26 05:20:04;;;;;;;43.63;18.07;;;;;;;;;;5017706;28;20261;-66
2022/03/26 05:22:29;;;;;;;46.20;18.70;;;;;;;;;;5025022;28;20236;-64
2022/03/26 05:24:54;;;;;;;50.03;18.67;;;;;;;;;;5028329;28;20183;-65
2022/03/26 05:27:20;;;;;;;43.17;18.77;;;;;;;;;;5025803;28;20666;-65
2022/03/26 05:29:46;;;;;;;47.20;17.47;;;;;;;;;;5024572;28;20188;-65
2022/03/26 05:32:12;;;;;;;54.97;19.77;;;;;;;;;;5015567;28;20195;-66
2022/03/26 05:34:37;;;;;;;52.17;19.87;;;;;;;;;;5038130;28;20251;-65
2022/03/26 05:37:04;;;;;;;45.33;18.43;;;;;;;;;;5032546;28;20250;-66
2022/03/26 05:39:30;;;;;;;44.93;17.17;;;;;;;;;;5025795;28;20175;-66
2022/03/26 05:41:55;;;;;;;42.50;18.43;;;;;;;;;;5025435;28;20176;-65
2022/03/26 05:44:21;;;;;;;45.17;17.77;;;;;;;;;;5027453;28;20178;-65
2022/03/26 05:46:46;;;;;;;42.57;17.90;;;;;;;;;;5036932;28;20194;-66
2022/03/26 05:49:11;;;;;;;46.03;17.90;;;;;;;;;;5031653;28;20317;-65
2022/03/26 05:51:37;;;;;;;48.00;18.70;;;;;;;;;;5033513;28;20848;-65
2022/03/26 05:54:02;;;;;;;44.13;17.87;;;;;;;;;;5038443;28;20177;-65
2022/03/26 05:56:28;;;;;;;41.83;18.23;;;;;;;;;;5039245;28;20185;-65
2022/03/26 05:58:53;;;;;;;44.33;17.23;;;;;;;;;;5032855;28;20614;-66
2022/03/26 06:01:20;;;;;;;50.27;18.97;;;;;;;;;;5035560;28;20190;-65
2022/03/26 06:03:46;;;;;;;42.93;18.47;;;;;;;;;;5033644;28;20182;-66
2022/03/26 06:06:11;;;;;;;45.60;18.70;;;;;;;;;;5033174;28;20255;-66
2022/03/26 06:08:36;;;;;;;49.97;21.20;;;;;;;;;;5030602;28;20185;-65
2022/03/26 06:11:02;;;;;;;52.10;21.50;;;;;;;;;;5033794;28;20264;-65
2022/03/26 06:13:27;;;;;;;49.40;18.77;;;;;;;;;;5038244;28;20177;-65
2022/03/26 06:15:52;;;;;;;47.57;19.30;;;;;;;;;;5035023;28;20308;-66
2022/03/26 06:18:17;;;;;;;51.90;20.23;;;;;;;;;;5035699;28;20671;-66
2022/03/26 06:20:43;;;;;;;53.73;19.53;;;;;;;;;;5041382;28;20173;-65
2022/03/26 06:23:08;;;;;;;47.67;20.30;;;;;;;;;;5036757;28;20171;-66
2022/03/26 06:25:33;;;;;;;46.30;21.17;;;;;;;;;;5044705;28;20220;-65
2022/03/26 06:27:59;;;;;;;48.17;19.93;;;;;;;;;;5040380;28;20202;-65
2022/03/26 06:30:24;;;;;;;50.03;20.63;;;;;;;;;;5042349;28;20571;-66
2022/03/26 06:32:52;;;;;;;53.07;21.53;;;;;;;;;;5037834;28;20185;-65
2022/03/26 06:35:18;;;;;;;54.60;22.93;;;;;;;;;;5038329;28;20185;-66
2022/03/26 06:37:43;;;;;;;55.47;22.77;;;;;;;;;;5042668;28;20679;-65
2022/03/26 06:40:09;;;;;;;61.07;23.30;;;;;;;;;;5042078;28;20182;-66
2022/03/26 06:42:34;;;;;;;56.23;23.27;;;;;;;;;;5038481;28;20193;-65
2022/03/26 06:45:00;;;;;;;61.90;23.73;;;;;;;;;;5041563;28;20178;-65
2022/03/26 06:47:30;;;;;;;63.93;25.07;;;;;;;;;;5044628;28;20288;-65
2022/03/26 06:49:55;;;;;;;58.07;24.40;;;;;;;;;;5041487;28;20196;-65
2022/03/26 06:52:23;;;;;;;60.83;25.60;;;;;;;;;;5040833;28;20181;-66
2022/03/26 06:54:48;;;;;;;70.57;27.20;;;;;;;;;;5037547;28;20551;-65
2022/03/26 06:57:13;;;;;;;59.90;25.87;;;;;;;;;;5041638;28;20177;-66
2022/03/26 06:59:39;;;;;;;71.40;28.30;;;;;;;;;;5044581;28;20257;-66
2022/03/26 07:02:04;;;;;;;79.07;28.93;;;;;;;;;;5037366;28;20181;-66
2022/03/26 07:04:30;;;;;;;78.73;30.50;;;;;;;;;;5033960;28;20178;-66
2022/03/26 07:06:55;;;;;;;73.97;30.87;;;;;;;;;;5039389;28;20304;-66
2022/03/26 07:09:23;;;;;;;84.20;33.00;;;;;;;;;;5040799;28;20530;-66
2022/03/26 07:11:48;;;;;;;78.73;31.97;;;;;;;;;;5040471;28;20177;-66
2022/03/26 07:14:14;;;;;;;80.97;33.17;;;;;;;;;;5034483;28;20260;-66
2022/03/26 07:16:39;;;;;;;77.10;33.83;;;;;;;;;;5040681;28;20169;-65
2022/03/26 07:19:04;;;;;;;78.60;33.83;;;;;;;;;;5029880;28;20196;-64
2022/03/26 07:21:31;;;;;;;84.60;34.27;;;;;;;;;;5030778;28;20200;-64
2022/03/26 07:23:57;;;;;;;88.20;34.70;;;;;;;;;;5027277;28;20186;-64
2022/03/26 07:26:23;;;;;;;84.20;35.57;;;;;;;;;;5034252;28;20596;-64
2022/03/26 07:28:49;;;;;;;90.60;36.53;;;;;;;;;;5027730;28;20523;-64
2022/03/26 07:31:15;;;;;;;92.47;36.87;;;;;;;;;;5025633;28;20216;-64
2022/03/26 07:33:40;;;;;;;91.03;36.93;;;;;;;;;;5026827;28;20182;-64
2022/03/26 07:36:05;;;;;;;91.90;36.50;;;;;;;;;;5037516;28;20225;-65
2022/03/26 07:38:31;;;;;;;93.33;36.77;;;;;;;;;;5038439;28;20582;-65
2022/03/26 07:40:57;;;;;;;93.27;38.47;;;;;;;;;;5039762;28;20255;-65
2022/03/26 07:43:22;;;;;;;95.93;39.23;;;;;;;;;;5026506;28;20641;-65
2022/03/26 07:45:48;;;;;;;89.93;37.93;;;;;;;;;;5038914;28;20173;-65
2022/03/26 07:48:13;;;;;;;97.90;38.17;;;;;;;;;;5034781;28;20214;-65
2022/03/26 07:50:38;;;;;;;92.87;38.07;;;;;;;;;;5040222;28;20178;-65
2022/03/26 07:53:04;;;;;;;96.50;39.50;;;;;;;;;;5030274;28;20248;-65
2022/03/26 07:55:30;;;;;;;89.03;37.13;;;;;;;;;;5020630;28;20182;-65
2022/03/26 07:57:55;;;;;;;89.63;35.63;;;;;;;;;;5037348;28;20185;-65
2022/03/26 08:00:23;;;;;;;84.78;35.45;;;;;;;;;;5029695;28;20193;-65
2022/03/26 08:02:48;;;;;;;86.25;34.50;;;;;;;;;;5030509;28;20190;-65
2022/03/26 08:05:13;;;;;;;93.30;36.47;;;;;;;;;;5041452;28;20758;-65
2022/03/26 08:07:39;;;;;;;90.03;36.63;;;;;;;;;;5041665;28;20201;-67
2022/03/26 08:10:05;;;;;;;87.50;36.80;;;;;;;;;;5042886;28;20573;-65
2022/03/26 08:12:30;;;;;;;88.75;37.00;;;;;;;;;;5041317;28;20183;-65
2022/03/26 08:14:55;;;;;;;91.97;37.50;;;;;;;;;;5038872;28;20308;-65
2022/03/26 08:17:21;;;;;;;90.43;36.70;;;;;;;;;;5045900;28;20606;-65
2022/03/26 08:19:47;;;;;;;88.22;35.47;;;;;;;;;;5045795;28;20572;-65
2022/03/26 08:22:12;;;;;;;87.63;35.40;;;;;;;;;;5040601;28;20678;-65
2022/03/26 08:24:37;;;;;;;87.13;34.95;;;;;;;;;;5035768;28;20189;-66
2022/03/26 08:27:04;;;;;;;84.88;34.20;;;;;;;;;;5040254;28;20193;-66
2022/03/26 08:29:29;;;;;;;73.95;32.15;;;;;;;;;;5040881;28;20265;-64
2022/03/26 08:31:54;;;;;;;72.00;29.70;;;;;;;;;;5041898;28;20292;-66
2022/03/26 08:34:20;;;;;;;73.07;29.05;;;;;;;;;;5032806;28;20181;-64
2022/03/26 08:36:46;;;;;;;71.50;31.25;;;;;;;;;;5039503;28;20257;-64
2022/03/26 08:39:11;;;;;;;71.63;29.17;;;;;;;;;;5022312;28;20205;-64
2022/03/26 08:41:37;;;;;;;62.33;26.33;;;;;;;;;;5018802;28;20194;-66
2022/03/26 08:44:03;;;;;;;62.22;27.90;;;;;;;;;;5035154;28;20604;-65
2022/03/26 08:46:29;;;;;;;59.95;27.75;;;;;;;;;;5042365;28;20197;-65
2022/03/26 08:48:56;;;;;;;57.08;26.38;;;;;;;;;;5041563;28;20248;-65
2022/03/26 08:51:21;;;;;;;67.55;27.77;;;;;;;;;;5036666;28;20182;-66
2022/03/26 08:53:47;;;;;;;63.65;27.88;;;;;;;;;;5018066;28;20174;-66
2022/03/26 08:56:12;;;;;;;66.35;28.55;;;;;;;;;;5025763;28;20539;-66
2022/03/26 08:58:38;;;;;;;68.75;27.83;;;;;;;;;;5027319;28;20178;-66
2022/03/26 09:01:04;;;;;;;71.90;29.88;;;;;;;;;;5026287;28;20194;-67
2022/03/26 09:03:29;;;;;;;59.33;27.25;;;;;;;;;;5024313;28;20656;-65
2022/03/26 09:05:56;;;;;;;66.65;28.45;;;;;;;;;;5026470;28;20361;-66
2022/03/26 09:08:21;;;;;;;46.80;21.52;;;;;;;;;;5040555;28;20664;-65
2022/03/26 09:10:47;;;;;;;44.50;19.80;;;;;;;;;;5019488;28;20175;-66
2022/03/26 09:13:13;;;;;;;42.03;18.73;;;;;;;;;;5025114;28;20240;-66
2022/03/26 09:15:38;;;;;;;49.08;20.40;;;;;;;;;;5021373;28;20266;-65
2022/03/26 09:18:04;;;;;;;44.95;20.85;;;;;;;;;;5024895;28;20193;-66
2022/03/26 09:20:30;;;;;;;37.95;19.40;;;;;;;;;;5018137;28;20197;-66
2022/03/26 09:22:56;;;;;;;37.22;16.77;;;;;;;;;;5027737;28;20178;-66
2022/03/26 09:25:22;;;;;;;34.72;16.83;;;;;;;;;;5018469;28;20213;-66
2022/03/26 09:27:48;;;;;;;35.85;17.52;;;;;;;;;;5028132;28;20233;-66
2022/03/26 09:30:15;;;;;;;40.30;18.35;;;;;;;;;;5035609;28;20181;-66
2022/03/26 09:32:41;;;;;;;45.90;19.90;;;;;;;;;;5019333;28;20238;-65
2022/03/26 09:35:07;;;;;;;42.95;20.33;;;;;;;;;;5020350;28;20512;-66
2022/03/26 09:37:32;;;;;;;49.00;21.90;;;;;;;;;;5018733;28;20618;-66
2022/03/26 09:39:57;;;;;;;45.95;21.67;;;;;;;;;;5020964;28;20181;-65
2022/03/26 09:42:24;;;;;;;47.17;21.88;;;;;;;;;;5021913;28;20544;-66
2022/03/26 09:44:50;;;;;;;45.88;21.73;;;;;;;;;;5023690;28;20712;-66
2022/03/26 09:47:16;;;;;;;45.42;20.73;;;;;;;;;;5024195;28;20237;-66
2022/03/26 09:49:41;;;;;;;48.50;21.33;;;;;;;;;;5021184;28;20654;-66
2022/03/26 09:52:07;;;;;;;47.92;20.55;;;;;;;;;;5025040;28;20260;-66
2022/03/26 09:54:34;;;;;;;50.47;21.67;;;;;;;;;;5014078;28;20182;-65
2022/03/26 09:57:00;;;;;;;46.47;21.17;;;;;;;;;;5022180;28;20185;-65
2022/03/26 09:59:25;;;;;;;38.92;17.83;;;;;;;;;;5027826;28;20273;-66
2022/03/26 10:01:51;;;;;;;48.17;19.63;;;;;;;;;;5038312;28;20284;-66
2022/03/26 10:04:19;;;;;;;45.28;20.30;;;;;;;;;;5030745;28;20227;-66
2022/03/26 10:06:56;;;;;;;45.10;20.67;;;;;;;;;;5033267;28;20293;-67
2022/03/26 10:09:25;;;;;;;48.47;20.98;;;;;;;;;;5036683;28;20645;-66
2022/03/26 10:11:58;;;;;;;53.00;22.13;;;;;;;;;;5032175;28;20189;-65
2022/03/26 10:14:23;;;;;;;43.38;19.77;;;;;;;;;;5037825;28;20233;-65
2022/03/26 10:16:52;;;;;;;41.50;18.85;;;;;;;;;;5039165;28;20177;-66
2022/03/26 10:19:21;;;;;;;46.65;19.75;;;;;;;;;;5034581;28;20190;-65
2022/03/26 10:21:49;;;;;;;42.38;18.35;;;;;;;;;;5030041;28;20494;-66
2022/03/26 10:24:14;;;;;;;36.90;17.60;;;;;;;;;;5036175;28;20173;-66
2022/03/26 10:26:41;;;;;;;41.58;18.40;;;;;;;;;;5034305;28;20193;-65
2022/03/26 10:29:06;;;;;;;40.45;17.35;;;;;;;;;;5037224;28;20299;-66
2022/03/26 10:34:21;;;;;;;40.47;17.63;;;;;;;;;;5025643;28;20281;-65
2022/03/26 10:37:01;;;;;;;45.13;19.05;;;;;;;;;;5021447;28;20256;-65
2022/03/26 10:39:30;;;;;;;40.90;19.45;;;;;;;;;;5038772;28;20691;-65
2022/03/26 10:41:56;;;;;;;39.72;18.63;;;;;;;;;;5024411;28;20182;-66
2022/03/26 10:44:28;;;;;;;38.17;18.70;;;;;;;;;;5025649;28;20265;-65
2022/03/26 10:47:04;;;;;;;38.42;19.70;;;;;;;;;;5025884;28;20248;-65
2022/03/26 10:49:38;;;;;;;42.97;19.92;;;;;;;;;;5024782;28;20180;-65
2022/03/26 10:52:13;;;;;;;44.58;20.42;;;;;;;;;;5023415;28;20574;-65
2022/03/26 10:54:39;;;;;;;44.75;20.67;;;;;;;;;;5033018;28;20186;-65
2022/03/26 10:57:05;;;;;;;42.78;19.63;;;;;;;;;;5022235;28;20543;-67
2022/03/26 10:59:31;;;;;;;41.83;19.10;;;;;;;;;;5022974;28;20182;-65
2022/03/26 11:01:58;;;;;;;47.80;20.95;;;;;;;;;;5023647;28;20635;-66
2022/03/26 11:04:25;;;;;;;44.45;19.08;;;;;;;;;;5022914;28;20272;-66
2022/03/26 11:06:51;;;;;;;34.83;16.80;;;;;;;;;;5021510;28;20239;-67
2022/03/26 11:09:16;;;;;;;38.92;18.25;;;;;;;;;;5034324;28;20181;-65
2022/03/26 11:11:45;;;;;;;40.85;18.25;;;;;;;;;;5034137;28;20269;-65
2022/03/26 11:14:16;;;;;;;41.95;18.83;;;;;;;;;;5035857;28;20170;-66
2022/03/26 11:16:47;;;;;;;39.70;17.77;;;;;;;;;;5038038;28;20178;-65
2022/03/26 11:19:53;;;;;;;39.20;18.90;;;;;;;;;;5036854;28;20174;-66
2022/03/26 11:22:45;;;;;;;39.13;18.73;;;;;;;;;;5037010;28;20181;-66
2022/03/26 11:25:44;;;;;;;44.15;19.17;;;;;;;;;;5035102;28;20170;-65
2022/03/26 11:28:37;;;;;;;42.97;20.30;;;;;;;;;;5035705;28;20724;-65
2022/03/26 11:31:14;;;;;;;38.33;18.80;;;;;;;;;;5027624;28;20284;-66
2022/03/26 11:33:39;;;;;;;38.47;18.30;;;;;;;;;;5041400;28;20652;-66
2022/03/26 11:36:07;;;;;;;42.22;18.00;;;;;;;;;;5035554;28;20196;-66
2022/03/26 11:38:33;;;;;;;39.58;18.05;;;;;;;;;;5026514;28;20289;-67
2022/03/26 11:41:06;;;;;;;31.73;15.80;;;;;;;;;;5026361;28;20286;-66
2022/03/26 11:43:44;;;;;;;38.70;16.27;;;;;;;;;;5024169;28;20180;-66
2022/03/26 11:51:57;;;;;;;30.92;12.55;;;;;;;;;;5037465;28;20196;-66
2022/03/26 11:54:23;;;;;;;28.40;13.00;;;;;;;;;;5028269;28;20190;-65
2022/03/26 11:57:14;;;;;;;25.55;11.63;;;;;;;;;;5027563;28;20256;-66
2022/03/26 11:59:41;;;;;;;24.13;12.40;;;;;;;;;;5021714;28;20182;-65
2022/03/26 12:02:29;;;;;;;29.55;12.82;;;;;;;;;;5023560;28;20211;-66
2022/03/26 12:04:59;;;;;;;21.65;11.43;;;;;;;;;;5026670;28;20174;-66
2022/03/26 12:07:29;;;;;;;23.88;13.15;;;;;;;;;;5034169;28;20214;-65
2022/03/26 12:10:06;;;;;;;23.42;11.45;;;;;;;;;;5032401;28;20641;-65
2022/03/26 12:12:48;;;;;;;19.05;10.52;;;;;;;;;;5027126;28;20178;-66
2022/03/26 12:15:13;;;;;;;19.88;10.10;;;;;;;;;;5025288;28;20224;-67
2022/03/26 12:17:46;;;;;;;19.48;9.95;;;;;;;;;;5030526;28;20532;-66
2022/03/26 12:20:23;;;;;;;23.90;11.48;;;;;;;;;;5032560;28;20181;-66
2022/03/26 12:22:51;;;;;;;23.83;12.15;;;;;;;;;;5036557;28;20193;-66
2022/03/26 12:25:16;;;;;;;19.75;10.52;;;;;;;;;;5040282;28;20693;-66
2022/03/26 12:27:44;;;;;;;21.40;11.07;;;;;;;;;;5046306;28;20305;-66
2022/03/26 12:30:10;;;;;;;22.58;11.93;;;;;;;;;;5043525;28;20216;-66
2022/03/26 12:32:36;;;;;;;24.67;12.13;;;;;;;;;;5041860;28;20200;-66
2022/03/26 12:35:05;;;;;;;21.83;12.20;;;;;;;;;;5042092;28;20636;-66
2022/03/26 12:37:32;;;;;;;24.15;12.07;;;;;;;;;;5043044;28;20190;-65
2022/03/26 12:39:58;;;;;;;23.77;11.27;;;;;;;;;;5040884;28;20193;-66
2022/03/26 12:42:24;;;;;;;23.38;11.45;;;;;;;;;;5032249;28;20188;-66
2022/03/26 12:44:51;;;;;;;18.38;10.60;;;;;;;;;;5045029;28;20198;-66
2022/03/26 12:47:21;;;;;;;21.02;10.30;;;;;;;;;;5033208;28;20210;-66
2022/03/26 12:49:47;;;;;;;19.52;11.10;;;;;;;;;;5032278;28;20521;-66
2022/03/26 12:52:18;;;;;;;20.70;10.82;;;;;;;;;;5037655;28;20189;-66
2022/03/26 12:54:44;;;;;;;16.63;10.13;;;;;;;;;;5043048;28;20196;-66
2022/03/26 12:57:10;;;;;;;17.50;10.35;;;;;;;;;;5031790;28;20285;-66
2022/03/26 12:59:35;;;;;;;16.08;9.00;;;;;;;;;;5044335;28;20186;-65
2022/03/26 13:02:01;;;;;;;18.08;11.40;;;;;;;;;;5037133;28;20208;-65
2022/03/26 13:04:27;;;;;;;18.48;11.43;;;;;;;;;;5035714;28;20203;-65
2022/03/26 13:06:54;;;;;;;18.20;11.52;;;;;;;;;;5039302;28;20280;-65
2022/03/26 13:09:20;;;;;;;17.00;11.35;;;;;;;;;;5042390;28;20239;-65
2022/03/26 13:11:49;;;;;;;20.45;11.05;;;;;;;;;;5043378;28;20216;-65
2022/03/26 13:14:18;;;;;;;21.98;10.85;;;;;;;;;;5043163;28;20198;-66
2022/03/26 13:16:49;;;;;;;15.00;9.63;;;;;;;;;;5041592;28;20180;-66
2022/03/26 13:19:16;;;;;;;20.98;11.13;;;;;;;;;;5021568;28;20201;-66
2022/03/26 13:21:43;;;;;;;18.38;10.70;;;;;;;;;;5023387;28;20586;-66
2022/03/26 13:24:14;;;;;;;13.93;8.48;;;;;;;;;;5036880;28;20266;-65
2022/03/26 13:26:52;;;;;;;17.73;9.25;;;;;;;;;;5040754;28;20217;-66
2022/03/26 13:29:18;;;;;;;15.63;9.23;;;;;;;;;;5036956;28;20275;-66
2022/03/26 13:31:53;;;;;;;15.57;9.38;;;;;;;;;;5039005;28;20487;-65
2022/03/26 13:34:24;;;;;;;18.58;11.10;;;;;;;;;;5036466;28;20901;-65
2022/03/26 13:36:50;;;;;;;18.85;11.75;;;;;;;;;;5037022;28;20200;-65
2022/03/26 13:39:17;;;;;;;21.17;12.70;;;;;;;;;;5039613;28;20194;-66
2022/03/26 13:41:43;;;;;;;20.73;11.65;;;;;;;;;;5037234;28;20604;-66
2022/03/26 13:44:09;;;;;;;23.65;10.88;;;;;;;;;;5039938;28;20178;-66
2022/03/26 13:46:35;;;;;;;20.80;10.82;;;;;;;;;;5037131;28;20562;-66
2022/03/26 13:49:01;;;;;;;16.63;10.15;;;;;;;;;;5038695;28;20817;-66
2022/03/26 13:51:29;;;;;;;15.98;9.52;;;;;;;;;;5035606;28;20217;-66
2022/03/26 13:53:55;;;;;;;16.67;9.27;;;;;;;;;;5039759;28;20185;-72
2022/03/26 13:56:26;;;;;;;17.35;9.93;;;;;;;;;;5034256;28;20178;-65
2022/03/26 13:58:52;;;;;;;11.95;8.52;;;;;;;;;;5042217;28;20518;-66
2022/03/26 14:01:19;;;;;;;12.38;7.50;;;;;;;;;;5036803;28;20182;-66
2022/03/26 14:03:51;;;;;;;15.13;8.27;;;;;;;;;;5037792;28;20165;-66
2022/03/26 14:06:16;;;;;;;12.98;8.82;;;;;;;;;;5038115;28;20181;-66
2022/03/26 14:08:47;;;;;;;13.63;7.88;;;;;;;;;;5038120;28;20177;-65
2022/03/26 14:11:16;;;;;;;11.95;8.18;;;;;;;;;;5035713;28;20209;-65
2022/03/26 14:13:41;;;;;;;13.60;8.00;;;;;;;;;;5041829;28;20579;-66
2022/03/26 14:16:06;;;;;;;16.38;7.40;;;;;;;;;;5035468;28;20760;-66
2022/03/26 14:18:31;;;;;;;11.05;8.00;;;;;;;;;;5041779;28;20657;-66
2022/03/26 14:20:57;;;;;;;17.67;9.00;;;;;;;;;;5021758;28;20193;-67
2022/03/26 14:23:22;;;;;;;17.25;9.10;;;;;;;;;;5038555;28;20181;-66
2022/03/26 14:25:49;;;;;;;13.93;9.15;;;;;;;;;;5026374;28;20205;-66